sensor_id;sensor_type;location;lat;lon;timestamp;P1;durP1;ratioP1;P2;durP2;ratioP2
18887;SDS011;9576;47.792;9.628;2022-08-03T00:01:26;3.53;;;2.33;;
18887;SDS011;9576;47.792;9.628;2022-08-03T00:04:28;2.97;;;2.30;;
18887;SDS011;9576;47.792;9.628;2022-08-03T00:07:30;3.58;;;2.30;;
18887;SDS011;9576;47.792;9.628;2022-08-03T00:10:32;5.13;;;2.22;;
18887;SDS011;9576;47.792;9.628;2022-08-03T00:13:36;4.70;;;2.35;;
18887;SDS011;9576;47.792;9.628;2022-08-03T00:16:38;5.60;;;2.63;;
18887;SDS011;9576;47.792;9.628;2022-08-03T00:19:40;2.42;;;1.60;;
18887;SDS011;9576;47.792;9.628;2022-08-03T00:22:42;1.60;;;1.42;;
18887;SDS011;9576;47.792;9.628;2022-08-03T00:25:45;2.25;;;1.98;;
18887;SDS011;9576;47.792;9.628;2022-08-03T00:28:48;6.72;;;1.95;;
18887;SDS011;9576;47.792;9.628;2022-08-03T00:31:50;4.35;;;2.25;;
18887;SDS011;9576;47.792;9.628;2022-08-03T00:34:52;5.28;;;2.00;;
18887;SDS011;9576;47.792;9.628;2022-08-03T00:37:55;2.70;;;2.00;;
18887;SDS011;9576;47.792;9.628;2022-08-03T00:40:57;5.38;;;2.38;;
18887;SDS011;9576;47.792;9.628;2022-08-03T00:44:00;8.60;;;2.00;;
18887;SDS011;9576;47.792;9.628;2022-08-03T00:47:02;2.53;;;1.83;;
18887;SDS011;9576;47.792;9.628;2022-08-03T00:50:05;4.15;;;1.95;;
18887;SDS011;9576;47.792;9.628;2022-08-03T00:53:08;2.53;;;1.55;;
18887;SDS011;9576;47.792;9.628;2022-08-03T00:59:16;2.88;;;2.08;;
18887;SDS011;9576;47.792;9.628;2022-08-03T01:02:19;3.67;;;2.08;;
18887;SDS011;9576;47.792;9.628;2022-08-03T01:05:21;4.70;;;1.95;;
18887;SDS011;9576;47.792;9.628;2022-08-03T01:08:27;2.92;;;1.85;;
18887;SDS011;9576;47.792;9.628;2022-08-03T01:11:35;3.17;;;1.80;;
18887;SDS011;9576;47.792;9.628;2022-08-03T01:14:48;3.28;;;1.75;;
18887;SDS011;9576;47.792;9.628;2022-08-03T01:17:56;2.38;;;1.73;;
18887;SDS011;9576;47.792;9.628;2022-08-03T01:21:06;2.70;;;1.92;;
18887;SDS011;9576;47.792;9.628;2022-08-03T01:24:16;3.70;;;1.88;;
18887;SDS011;9576;47.792;9.628;2022-08-03T01:27:35;2.40;;;2.00;;
18887;SDS011;9576;47.792;9.628;2022-08-03T01:30:52;2.10;;;1.65;;
18887;SDS011;9576;47.792;9.628;2022-08-03T01:33:58;5.03;;;2.17;;
18887;SDS011;9576;47.792;9.628;2022-08-03T01:37:03;3.30;;;1.77;;
18887;SDS011;9576;47.792;9.628;2022-08-03T01:43:12;3.03;;;1.90;;
18887;SDS011;9576;47.792;9.628;2022-08-03T01:46:18;2.63;;;1.70;;
18887;SDS011;9576;47.792;9.628;2022-08-03T01:49:22;2.30;;;1.88;;
18887;SDS011;9576;47.792;9.628;2022-08-03T01:52:26;4.93;;;1.80;;
18887;SDS011;9576;47.792;9.628;2022-08-03T01:55:29;3.67;;;1.98;;
18887;SDS011;9576;47.792;9.628;2022-08-03T01:58:33;2.45;;;1.80;;
18887;SDS011;9576;47.792;9.628;2022-08-03T02:01:37;7.03;;;1.90;;
18887;SDS011;9576;47.792;9.628;2022-08-03T02:04:41;2.80;;;1.75;;
18887;SDS011;9576;47.792;9.628;2022-08-03T02:07:45;12.30;;;1.90;;
18887;SDS011;9576;47.792;9.628;2022-08-03T02:10:49;2.90;;;2.20;;
18887;SDS011;9576;47.792;9.628;2022-08-03T02:13:52;5.57;;;2.40;;
18887;SDS011;9576;47.792;9.628;2022-08-03T02:16:56;3.22;;;2.42;;
18887;SDS011;9576;47.792;9.628;2022-08-03T02:19:59;4.07;;;2.20;;
18887;SDS011;9576;47.792;9.628;2022-08-03T02:23:02;2.53;;;2.20;;
18887;SDS011;9576;47.792;9.628;2022-08-03T02:26:06;14.25;;;2.10;;
18887;SDS011;9576;47.792;9.628;2022-08-03T02:29:17;2.42;;;2.13;;
18887;SDS011;9576;47.792;9.628;2022-08-03T02:32:27;6.78;;;2.38;;
18887;SDS011;9576;47.792;9.628;2022-08-03T02:35:31;2.65;;;2.13;;
18887;SDS011;9576;47.792;9.628;2022-08-03T02:38:36;4.57;;;2.45;;
18887;SDS011;9576;47.792;9.628;2022-08-03T02:41:42;6.82;;;2.42;;
18887;SDS011;9576;47.792;9.628;2022-08-03T02:44:51;4.85;;;2.65;;
18887;SDS011;9576;47.792;9.628;2022-08-03T02:47:57;2.63;;;2.00;;
18887;SDS011;9576;47.792;9.628;2022-08-03T02:51:03;6.03;;;2.00;;
18887;SDS011;9576;47.792;9.628;2022-08-03T02:54:05;3.97;;;2.33;;
18887;SDS011;9576;47.792;9.628;2022-08-03T02:57:09;2.70;;;1.90;;
18887;SDS011;9576;47.792;9.628;2022-08-03T03:00:12;3.15;;;1.92;;
18887;SDS011;9576;47.792;9.628;2022-08-03T03:03:16;3.65;;;2.08;;
18887;SDS011;9576;47.792;9.628;2022-08-03T03:06:20;4.38;;;1.95;;
18887;SDS011;9576;47.792;9.628;2022-08-03T03:09:22;3.78;;;3.08;;
18887;SDS011;9576;47.792;9.628;2022-08-03T03:12:25;3.58;;;2.10;;
18887;SDS011;9576;47.792;9.628;2022-08-03T03:15:29;3.53;;;2.50;;
18887;SDS011;9576;47.792;9.628;2022-08-03T03:18:36;3.97;;;2.42;;
18887;SDS011;9576;47.792;9.628;2022-08-03T03:21:39;3.22;;;2.03;;
18887;SDS011;9576;47.792;9.628;2022-08-03T03:24:44;2.40;;;2.00;;
18887;SDS011;9576;47.792;9.628;2022-08-03T03:27:48;3.00;;;2.15;;
18887;SDS011;9576;47.792;9.628;2022-08-03T03:30:51;6.57;;;2.25;;
18887;SDS011;9576;47.792;9.628;2022-08-03T03:33:55;3.97;;;1.88;;
18887;SDS011;9576;47.792;9.628;2022-08-03T03:36:58;6.72;;;2.35;;
18887;SDS011;9576;47.792;9.628;2022-08-03T03:40:01;4.70;;;2.17;;
18887;SDS011;9576;47.792;9.628;2022-08-03T03:43:06;2.78;;;2.13;;
18887;SDS011;9576;47.792;9.628;2022-08-03T03:46:11;3.23;;;2.23;;
18887;SDS011;9576;47.792;9.628;2022-08-03T03:52:16;3.28;;;2.13;;
18887;SDS011;9576;47.792;9.628;2022-08-03T03:55:18;3.08;;;2.28;;
18887;SDS011;9576;47.792;9.628;2022-08-03T03:58:21;6.25;;;2.10;;
18887;SDS011;9576;47.792;9.628;2022-08-03T04:01:23;4.15;;;2.15;;
18887;SDS011;9576;47.792;9.628;2022-08-03T04:04:26;3.38;;;2.42;;
18887;SDS011;9576;47.792;9.628;2022-08-03T04:07:55;5.70;;;2.70;;
18887;SDS011;9576;47.792;9.628;2022-08-03T04:11:17;2.85;;;2.28;;
18887;SDS011;9576;47.792;9.628;2022-08-03T04:14:22;5.18;;;2.45;;
18887;SDS011;9576;47.792;9.628;2022-08-03T04:17:27;3.97;;;2.08;;
18887;SDS011;9576;47.792;9.628;2022-08-03T04:20:33;7.80;;;2.60;;
18887;SDS011;9576;47.792;9.628;2022-08-03T04:23:39;4.22;;;2.33;;
18887;SDS011;9576;47.792;9.628;2022-08-03T04:26:44;20.00;;;3.28;;
18887;SDS011;9576;47.792;9.628;2022-08-03T04:29:49;7.83;;;2.57;;
18887;SDS011;9576;47.792;9.628;2022-08-03T04:32:54;18.77;;;3.90;;
18887;SDS011;9576;47.792;9.628;2022-08-03T04:35:59;6.18;;;2.50;;
18887;SDS011;9576;47.792;9.628;2022-08-03T04:39:05;6.35;;;2.70;;
18887;SDS011;9576;47.792;9.628;2022-08-03T04:45:12;5.40;;;3.00;;
18887;SDS011;9576;47.792;9.628;2022-08-03T04:48:16;5.45;;;2.55;;
18887;SDS011;9576;47.792;9.628;2022-08-03T04:51:21;4.60;;;2.10;;
18887;SDS011;9576;47.792;9.628;2022-08-03T04:54:24;7.27;;;2.83;;
18887;SDS011;9576;47.792;9.628;2022-08-03T04:57:26;5.45;;;2.80;;
18887;SDS011;9576;47.792;9.628;2022-08-03T05:00:28;7.90;;;2.80;;
18887;SDS011;9576;47.792;9.628;2022-08-03T05:03:31;3.90;;;2.55;;
18887;SDS011;9576;47.792;9.628;2022-08-03T05:06:34;3.85;;;2.38;;
18887;SDS011;9576;47.792;9.628;2022-08-03T05:09:36;3.97;;;2.70;;
18887;SDS011;9576;47.792;9.628;2022-08-03T05:12:39;6.63;;;2.50;;
18887;SDS011;9576;47.792;9.628;2022-08-03T05:15:41;7.78;;;3.20;;
18887;SDS011;9576;47.792;9.628;2022-08-03T05:18:43;3.53;;;2.60;;
18887;SDS011;9576;47.792;9.628;2022-08-03T05:21:47;4.55;;;2.63;;
18887;SDS011;9576;47.792;9.628;2022-08-03T05:24:49;3.42;;;2.80;;
18887;SDS011;9576;47.792;9.628;2022-08-03T05:27:51;6.15;;;2.92;;
18887;SDS011;9576;47.792;9.628;2022-08-03T05:30:53;9.23;;;3.00;;
18887;SDS011;9576;47.792;9.628;2022-08-03T05:33:56;6.50;;;3.10;;
18887;SDS011;9576;47.792;9.628;2022-08-03T05:36:59;8.48;;;2.75;;
18887;SDS011;9576;47.792;9.628;2022-08-03T05:40:02;6.55;;;2.80;;
18887;SDS011;9576;47.792;9.628;2022-08-03T05:43:05;6.70;;;3.50;;
18887;SDS011;9576;47.792;9.628;2022-08-03T05:46:07;4.03;;;3.13;;
18887;SDS011;9576;47.792;9.628;2022-08-03T05:49:09;8.30;;;2.58;;
18887;SDS011;9576;47.792;9.628;2022-08-03T05:52:13;4.25;;;2.58;;
18887;SDS011;9576;47.792;9.628;2022-08-03T05:55:15;5.30;;;3.03;;
18887;SDS011;9576;47.792;9.628;2022-08-03T05:58:18;4.00;;;3.33;;
18887;SDS011;9576;47.792;9.628;2022-08-03T06:01:20;6.03;;;3.45;;
18887;SDS011;9576;47.792;9.628;2022-08-03T06:04:22;4.57;;;2.75;;
18887;SDS011;9576;47.792;9.628;2022-08-03T06:07:26;10.90;;;2.95;;
18887;SDS011;9576;47.792;9.628;2022-08-03T06:10:29;8.93;;;3.60;;
18887;SDS011;9576;47.792;9.628;2022-08-03T06:13:32;4.40;;;3.08;;
18887;SDS011;9576;47.792;9.628;2022-08-03T06:16:34;4.95;;;3.08;;
18887;SDS011;9576;47.792;9.628;2022-08-03T06:19:36;6.93;;;3.20;;
18887;SDS011;9576;47.792;9.628;2022-08-03T06:22:40;5.28;;;2.80;;
18887;SDS011;9576;47.792;9.628;2022-08-03T06:25:42;4.70;;;2.83;;
18887;SDS011;9576;47.792;9.628;2022-08-03T06:28:44;7.43;;;3.50;;
18887;SDS011;9576;47.792;9.628;2022-08-03T06:31:48;5.32;;;2.83;;
18887;SDS011;9576;47.792;9.628;2022-08-03T06:34:50;4.30;;;2.80;;
18887;SDS011;9576;47.792;9.628;2022-08-03T06:37:53;5.57;;;2.70;;
18887;SDS011;9576;47.792;9.628;2022-08-03T06:40:56;5.38;;;3.00;;
18887;SDS011;9576;47.792;9.628;2022-08-03T06:43:58;6.38;;;2.92;;
18887;SDS011;9576;47.792;9.628;2022-08-03T06:47:00;8.30;;;3.17;;
18887;SDS011;9576;47.792;9.628;2022-08-03T06:50:02;3.75;;;2.58;;
18887;SDS011;9576;47.792;9.628;2022-08-03T06:53:06;6.50;;;2.67;;
18887;SDS011;9576;47.792;9.628;2022-08-03T06:56:09;5.25;;;3.00;;
18887;SDS011;9576;47.792;9.628;2022-08-03T06:59:11;3.85;;;2.63;;
18887;SDS011;9576;47.792;9.628;2022-08-03T07:02:13;3.90;;;2.00;;
18887;SDS011;9576;47.792;9.628;2022-08-03T07:05:17;5.43;;;3.00;;
18887;SDS011;9576;47.792;9.628;2022-08-03T07:08:21;9.98;;;2.80;;
18887;SDS011;9576;47.792;9.628;2022-08-03T07:11:23;6.60;;;2.72;;
18887;SDS011;9576;47.792;9.628;2022-08-03T07:14:27;5.75;;;3.28;;
18887;SDS011;9576;47.792;9.628;2022-08-03T07:17:30;4.00;;;2.70;;
18887;SDS011;9576;47.792;9.628;2022-08-03T07:20:33;5.93;;;2.75;;
18887;SDS011;9576;47.792;9.628;2022-08-03T07:23:36;4.95;;;2.47;;
18887;SDS011;9576;47.792;9.628;2022-08-03T07:26:38;12.77;;;3.25;;
18887;SDS011;9576;47.792;9.628;2022-08-03T07:29:41;7.63;;;2.92;;
18887;SDS011;9576;47.792;9.628;2022-08-03T07:32:43;3.75;;;2.90;;
18887;SDS011;9576;47.792;9.628;2022-08-03T07:35:45;7.72;;;3.15;;
18887;SDS011;9576;47.792;9.628;2022-08-03T07:38:49;6.95;;;2.80;;
18887;SDS011;9576;47.792;9.628;2022-08-03T07:41:51;8.02;;;2.15;;
18887;SDS011;9576;47.792;9.628;2022-08-03T07:44:53;4.10;;;2.65;;
18887;SDS011;9576;47.792;9.628;2022-08-03T07:47:55;6.20;;;3.03;;
18887;SDS011;9576;47.792;9.628;2022-08-03T07:50:58;6.10;;;2.90;;
18887;SDS011;9576;47.792;9.628;2022-08-03T07:54:01;3.72;;;2.17;;
18887;SDS011;9576;47.792;9.628;2022-08-03T07:57:03;4.78;;;2.55;;
18887;SDS011;9576;47.792;9.628;2022-08-03T08:00:07;7.18;;;2.58;;
18887;SDS011;9576;47.792;9.628;2022-08-03T08:03:15;8.73;;;2.50;;
18887;SDS011;9576;47.792;9.628;2022-08-03T08:06:17;5.78;;;2.40;;
18887;SDS011;9576;47.792;9.628;2022-08-03T08:09:20;12.55;;;2.35;;
18887;SDS011;9576;47.792;9.628;2022-08-03T08:12:23;4.07;;;2.25;;
18887;SDS011;9576;47.792;9.628;2022-08-03T08:15:25;3.58;;;2.40;;
18887;SDS011;9576;47.792;9.628;2022-08-03T08:18:27;3.13;;;2.28;;
18887;SDS011;9576;47.792;9.628;2022-08-03T08:21:29;3.97;;;2.13;;
18887;SDS011;9576;47.792;9.628;2022-08-03T08:24:33;3.58;;;2.15;;
18887;SDS011;9576;47.792;9.628;2022-08-03T08:27:39;10.93;;;2.58;;
18887;SDS011;9576;47.792;9.628;2022-08-03T08:30:43;2.58;;;2.17;;
18887;SDS011;9576;47.792;9.628;2022-08-03T08:33:45;6.13;;;2.05;;
18887;SDS011;9576;47.792;9.628;2022-08-03T08:36:47;3.42;;;2.42;;
18887;SDS011;9576;47.792;9.628;2022-08-03T08:39:50;3.63;;;2.20;;
18887;SDS011;9576;47.792;9.628;2022-08-03T08:42:53;3.95;;;2.03;;
18887;SDS011;9576;47.792;9.628;2022-08-03T08:45:55;3.65;;;2.28;;
18887;SDS011;9576;47.792;9.628;2022-08-03T08:48:59;6.53;;;2.53;;
18887;SDS011;9576;47.792;9.628;2022-08-03T08:52:02;4.97;;;2.40;;
18887;SDS011;9576;47.792;9.628;2022-08-03T08:55:08;5.82;;;2.22;;
18887;SDS011;9576;47.792;9.628;2022-08-03T08:58:11;3.67;;;2.42;;
18887;SDS011;9576;47.792;9.628;2022-08-03T09:01:15;3.75;;;2.40;;
18887;SDS011;9576;47.792;9.628;2022-08-03T09:07:21;3.30;;;2.08;;
18887;SDS011;9576;47.792;9.628;2022-08-03T09:10:24;4.82;;;2.13;;
18887;SDS011;9576;47.792;9.628;2022-08-03T09:13:26;4.65;;;2.33;;
18887;SDS011;9576;47.792;9.628;2022-08-03T09:16:29;3.15;;;2.30;;
18887;SDS011;9576;47.792;9.628;2022-08-03T09:19:32;8.45;;;2.63;;
18887;SDS011;9576;47.792;9.628;2022-08-03T09:22:35;6.32;;;2.25;;
18887;SDS011;9576;47.792;9.628;2022-08-03T09:25:57;3.13;;;1.80;;
18887;SDS011;9576;47.792;9.628;2022-08-03T09:29:01;3.65;;;2.33;;
18887;SDS011;9576;47.792;9.628;2022-08-03T09:35:07;8.68;;;2.08;;
18887;SDS011;9576;47.792;9.628;2022-08-03T09:38:11;5.00;;;2.28;;
18887;SDS011;9576;47.792;9.628;2022-08-03T09:41:17;4.30;;;2.50;;
18887;SDS011;9576;47.792;9.628;2022-08-03T09:44:19;3.17;;;1.85;;
18887;SDS011;9576;47.792;9.628;2022-08-03T09:47:34;2.70;;;2.10;;
18887;SDS011;9576;47.792;9.628;2022-08-03T09:50:46;2.92;;;2.03;;
18887;SDS011;9576;47.792;9.628;2022-08-03T09:53:50;3.78;;;1.85;;
18887;SDS011;9576;47.792;9.628;2022-08-03T09:56:53;10.57;;;2.05;;
18887;SDS011;9576;47.792;9.628;2022-08-03T10:00:05;3.38;;;1.83;;
18887;SDS011;9576;47.792;9.628;2022-08-03T10:03:11;2.03;;;1.60;;
18887;SDS011;9576;47.792;9.628;2022-08-03T10:06:13;5.60;;;1.70;;
18887;SDS011;9576;47.792;9.628;2022-08-03T10:09:16;4.90;;;2.28;;
18887;SDS011;9576;47.792;9.628;2022-08-03T10:12:20;3.97;;;1.80;;
18887;SDS011;9576;47.792;9.628;2022-08-03T10:15:22;1.60;;;1.45;;
18887;SDS011;9576;47.792;9.628;2022-08-03T10:18:25;15.60;;;2.00;;
18887;SDS011;9576;47.792;9.628;2022-08-03T10:21:27;7.32;;;1.67;;
18887;SDS011;9576;47.792;9.628;2022-08-03T10:24:34;2.42;;;1.70;;
18887;SDS011;9576;47.792;9.628;2022-08-03T10:27:41;2.67;;;1.42;;
18887;SDS011;9576;47.792;9.628;2022-08-03T10:30:47;2.15;;;1.70;;
18887;SDS011;9576;47.792;9.628;2022-08-03T10:33:51;3.93;;;1.63;;
18887;SDS011;9576;47.792;9.628;2022-08-03T10:36:58;1.75;;;1.10;;
18887;SDS011;9576;47.792;9.628;2022-08-03T10:40:02;2.40;;;1.50;;
18887;SDS011;9576;47.792;9.628;2022-08-03T10:43:15;3.08;;;2.10;;
18887;SDS011;9576;47.792;9.628;2022-08-03T10:46:19;1.77;;;1.48;;
18887;SDS011;9576;47.792;9.628;2022-08-03T10:49:22;5.13;;;1.60;;
18887;SDS011;9576;47.792;9.628;2022-08-03T10:52:25;4.38;;;1.65;;
18887;SDS011;9576;47.792;9.628;2022-08-03T10:55:28;7.18;;;1.33;;
18887;SDS011;9576;47.792;9.628;2022-08-03T10:58:50;3.38;;;1.45;;
18887;SDS011;9576;47.792;9.628;2022-08-03T11:01:53;1.60;;;1.27;;
18887;SDS011;9576;47.792;9.628;2022-08-03T11:05:05;2.30;;;1.60;;
18887;SDS011;9576;47.792;9.628;2022-08-03T11:08:27;2.40;;;1.27;;
18887;SDS011;9576;47.792;9.628;2022-08-03T11:11:30;1.90;;;1.17;;
18887;SDS011;9576;47.792;9.628;2022-08-03T11:14:39;4.63;;;1.10;;
18887;SDS011;9576;47.792;9.628;2022-08-03T11:17:54;3.33;;;1.40;;
18887;SDS011;9576;47.792;9.628;2022-08-03T11:21:08;2.17;;;1.20;;
18887;SDS011;9576;47.792;9.628;2022-08-03T11:24:10;1.88;;;1.30;;
18887;SDS011;9576;47.792;9.628;2022-08-03T11:27:57;2.42;;;1.38;;
18887;SDS011;9576;47.792;9.628;2022-08-03T11:35:05;2.28;;;1.15;;
18887;SDS011;9576;47.792;9.628;2022-08-03T11:38:09;2.05;;;1.10;;
18887;SDS011;9576;47.792;9.628;2022-08-03T11:41:27;2.83;;;1.00;;
18887;SDS011;9576;47.792;9.628;2022-08-03T11:44:39;4.10;;;1.80;;
18887;SDS011;9576;47.792;9.628;2022-08-03T11:47:43;7.53;;;1.40;;
18887;SDS011;9576;47.792;9.628;2022-08-03T11:50:45;2.17;;;1.50;;
18887;SDS011;9576;47.792;9.628;2022-08-03T11:53:50;1.48;;;1.23;;
18887;SDS011;9576;47.792;9.628;2022-08-03T11:56:53;1.60;;;1.42;;
18887;SDS011;9576;47.792;9.628;2022-08-03T11:59:55;1.65;;;1.38;;
18887;SDS011;9576;47.792;9.628;2022-08-03T12:02:59;3.10;;;1.40;;
18887;SDS011;9576;47.792;9.628;2022-08-03T12:06:07;3.08;;;1.55;;
18887;SDS011;9576;47.792;9.628;2022-08-03T12:09:14;5.35;;;1.50;;
18887;SDS011;9576;47.792;9.628;2022-08-03T12:12:16;2.30;;;1.35;;
18887;SDS011;9576;47.792;9.628;2022-08-03T12:15:23;2.45;;;1.50;;
18887;SDS011;9576;47.792;9.628;2022-08-03T12:18:27;5.43;;;1.30;;
18887;SDS011;9576;47.792;9.628;2022-08-03T12:21:29;1.57;;;1.40;;
18887;SDS011;9576;47.792;9.628;2022-08-03T12:24:39;1.15;;;0.70;;
18887;SDS011;9576;47.792;9.628;2022-08-03T12:27:42;1.20;;;1.02;;
18887;SDS011;9576;47.792;9.628;2022-08-03T12:30:45;2.42;;;1.40;;
18887;SDS011;9576;47.792;9.628;2022-08-03T12:33:57;1.70;;;1.08;;
18887;SDS011;9576;47.792;9.628;2022-08-03T12:37:03;7.65;;;1.40;;
18887;SDS011;9576;47.792;9.628;2022-08-03T12:40:06;2.42;;;1.40;;
18887;SDS011;9576;47.792;9.628;2022-08-03T12:46:13;2.97;;;1.25;;
18887;SDS011;9576;47.792;9.628;2022-08-03T12:49:17;1.85;;;0.98;;
18887;SDS011;9576;47.792;9.628;2022-08-03T12:52:20;2.33;;;1.15;;
18887;SDS011;9576;47.792;9.628;2022-08-03T12:55:25;1.63;;;1.10;;
18887;SDS011;9576;47.792;9.628;2022-08-03T12:58:33;1.85;;;1.13;;
18887;SDS011;9576;47.792;9.628;2022-08-03T13:01:36;3.00;;;1.23;;
18887;SDS011;9576;47.792;9.628;2022-08-03T13:04:40;1.17;;;0.90;;
18887;SDS011;9576;47.792;9.628;2022-08-03T13:07:42;1.48;;;1.20;;
18887;SDS011;9576;47.792;9.628;2022-08-03T13:13:48;1.23;;;1.13;;
18887;SDS011;9576;47.792;9.628;2022-08-03T13:16:51;4.05;;;1.33;;
18887;SDS011;9576;47.792;9.628;2022-08-03T13:19:54;1.75;;;1.23;;
18887;SDS011;9576;47.792;9.628;2022-08-03T13:22:56;7.23;;;1.30;;
18887;SDS011;9576;47.792;9.628;2022-08-03T13:25:59;7.07;;;1.27;;
18887;SDS011;9576;47.792;9.628;2022-08-03T13:29:01;1.15;;;1.02;;
18887;SDS011;9576;47.792;9.628;2022-08-03T13:32:03;1.85;;;1.20;;
18887;SDS011;9576;47.792;9.628;2022-08-03T13:35:08;1.33;;;1.17;;
18887;SDS011;9576;47.792;9.628;2022-08-03T13:38:11;3.55;;;1.55;;
18887;SDS011;9576;47.792;9.628;2022-08-03T13:41:13;5.75;;;1.50;;
18887;SDS011;9576;47.792;9.628;2022-08-03T13:44:16;4.22;;;1.45;;
18887;SDS011;9576;47.792;9.628;2022-08-03T13:47:18;1.27;;;1.10;;
18887;SDS011;9576;47.792;9.628;2022-08-03T13:50:22;1.63;;;0.93;;
18887;SDS011;9576;47.792;9.628;2022-08-03T13:53:24;1.60;;;1.38;;
18887;SDS011;9576;47.792;9.628;2022-08-03T13:56:26;1.58;;;1.30;;
18887;SDS011;9576;47.792;9.628;2022-08-03T13:59:29;1.65;;;1.13;;
18887;SDS011;9576;47.792;9.628;2022-08-03T14:02:31;1.60;;;1.20;;
18887;SDS011;9576;47.792;9.628;2022-08-03T14:05:35;1.73;;;1.38;;
18887;SDS011;9576;47.792;9.628;2022-08-03T14:08:38;1.70;;;1.40;;
18887;SDS011;9576;47.792;9.628;2022-08-03T14:11:40;1.83;;;1.20;;
18887;SDS011;9576;47.792;9.628;2022-08-03T14:14:43;1.75;;;1.35;;
18887;SDS011;9576;47.792;9.628;2022-08-03T14:17:45;1.50;;;1.40;;
18887;SDS011;9576;47.792;9.628;2022-08-03T14:20:48;1.77;;;1.25;;
18887;SDS011;9576;47.792;9.628;2022-08-03T14:23:50;7.22;;;1.55;;
18887;SDS011;9576;47.792;9.628;2022-08-03T14:26:53;1.80;;;1.40;;
18887;SDS011;9576;47.792;9.628;2022-08-03T14:29:55;1.85;;;1.20;;
18887;SDS011;9576;47.792;9.628;2022-08-03T14:32:59;1.60;;;1.50;;
18887;SDS011;9576;47.792;9.628;2022-08-03T14:36:03;1.77;;;1.20;;
18887;SDS011;9576;47.792;9.628;2022-08-03T14:39:05;8.75;;;1.23;;
18887;SDS011;9576;47.792;9.628;2022-08-03T14:42:07;3.50;;;1.17;;
18887;SDS011;9576;47.792;9.628;2022-08-03T14:45:10;1.85;;;1.58;;
18887;SDS011;9576;47.792;9.628;2022-08-03T14:48:12;2.27;;;1.30;;
18887;SDS011;9576;47.792;9.628;2022-08-03T14:51:16;1.63;;;1.25;;
18887;SDS011;9576;47.792;9.628;2022-08-03T14:57:20;23.08;;;1.75;;
18887;SDS011;9576;47.792;9.628;2022-08-03T15:00:22;3.22;;;1.40;;
18887;SDS011;9576;47.792;9.628;2022-08-03T15:03:25;4.25;;;1.20;;
18887;SDS011;9576;47.792;9.628;2022-08-03T15:06:28;1.40;;;1.10;;
18887;SDS011;9576;47.792;9.628;2022-08-03T15:09:30;1.77;;;1.20;;
18887;SDS011;9576;47.792;9.628;2022-08-03T15:12:33;1.27;;;1.13;;
18887;SDS011;9576;47.792;9.628;2022-08-03T15:15:35;5.45;;;1.60;;
18887;SDS011;9576;47.792;9.628;2022-08-03T15:18:37;1.50;;;1.20;;
18887;SDS011;9576;47.792;9.628;2022-08-03T15:21:41;1.27;;;0.98;;
18887;SDS011;9576;47.792;9.628;2022-08-03T15:27:45;1.52;;;0.80;;
18887;SDS011;9576;47.792;9.628;2022-08-03T15:30:47;1.98;;;1.20;;
18887;SDS011;9576;47.792;9.628;2022-08-03T15:33:49;1.73;;;1.20;;
18887;SDS011;9576;47.792;9.628;2022-08-03T15:36:52;2.42;;;1.08;;
18887;SDS011;9576;47.792;9.628;2022-08-03T15:39:55;1.50;;;1.17;;
18887;SDS011;9576;47.792;9.628;2022-08-03T15:42:58;7.03;;;1.48;;
18887;SDS011;9576;47.792;9.628;2022-08-03T15:46:01;1.42;;;1.20;;
18887;SDS011;9576;47.792;9.628;2022-08-03T15:49:03;1.95;;;1.17;;
18887;SDS011;9576;47.792;9.628;2022-08-03T15:52:06;4.70;;;1.48;;
18887;SDS011;9576;47.792;9.628;2022-08-03T15:55:09;3.13;;;1.27;;
18887;SDS011;9576;47.792;9.628;2022-08-03T15:58:11;1.33;;;1.17;;
18887;SDS011;9576;47.792;9.628;2022-08-03T16:01:14;1.65;;;1.08;;
18887;SDS011;9576;47.792;9.628;2022-08-03T16:04:16;7.13;;;1.42;;
18887;SDS011;9576;47.792;9.628;2022-08-03T16:07:19;1.95;;;1.13;;
18887;SDS011;9576;47.792;9.628;2022-08-03T16:10:35;2.08;;;1.15;;
18887;SDS011;9576;47.792;9.628;2022-08-03T16:13:38;2.10;;;1.02;;
18887;SDS011;9576;47.792;9.628;2022-08-03T16:16:40;1.27;;;0.98;;
18887;SDS011;9576;47.792;9.628;2022-08-03T16:19:43;1.15;;;1.05;;
18887;SDS011;9576;47.792;9.628;2022-08-03T16:22:46;1.70;;;1.00;;
18887;SDS011;9576;47.792;9.628;2022-08-03T16:25:49;1.13;;;1.02;;
18887;SDS011;9576;47.792;9.628;2022-08-03T16:28:51;1.48;;;1.20;;
18887;SDS011;9576;47.792;9.628;2022-08-03T16:31:53;7.05;;;1.30;;
18887;SDS011;9576;47.792;9.628;2022-08-03T16:34:55;5.50;;;0.82;;
18887;SDS011;9576;47.792;9.628;2022-08-03T16:37:59;1.20;;;1.10;;
18887;SDS011;9576;47.792;9.628;2022-08-03T16:41:01;2.53;;;1.30;;
18887;SDS011;9576;47.792;9.628;2022-08-03T16:44:03;1.20;;;1.02;;
18887;SDS011;9576;47.792;9.628;2022-08-03T16:47:06;7.07;;;1.27;;
18887;SDS011;9576;47.792;9.628;2022-08-03T16:50:08;2.55;;;1.20;;
18887;SDS011;9576;47.792;9.628;2022-08-03T16:53:12;5.73;;;1.20;;
18887;SDS011;9576;47.792;9.628;2022-08-03T16:56:14;2.55;;;0.90;;
18887;SDS011;9576;47.792;9.628;2022-08-03T16:59:16;4.82;;;1.40;;
18887;SDS011;9576;47.792;9.628;2022-08-03T17:02:19;1.42;;;1.10;;
18887;SDS011;9576;47.792;9.628;2022-08-03T17:05:23;1.35;;;1.10;;
18887;SDS011;9576;47.792;9.628;2022-08-03T17:08:27;4.50;;;1.35;;
18887;SDS011;9576;47.792;9.628;2022-08-03T17:11:29;0.98;;;0.98;;
18887;SDS011;9576;47.792;9.628;2022-08-03T17:14:31;1.25;;;0.93;;
18887;SDS011;9576;47.792;9.628;2022-08-03T17:17:34;1.73;;;1.40;;
18887;SDS011;9576;47.792;9.628;2022-08-03T17:20:38;7.65;;;2.10;;
18887;SDS011;9576;47.792;9.628;2022-08-03T17:23:44;2.88;;;2.03;;
18887;SDS011;9576;47.792;9.628;2022-08-03T17:26:52;6.32;;;1.30;;
18887;SDS011;9576;47.792;9.628;2022-08-03T17:29:58;12.25;;;1.20;;
18887;SDS011;9576;47.792;9.628;2022-08-03T17:33:02;5.50;;;1.33;;
18887;SDS011;9576;47.792;9.628;2022-08-03T17:36:05;6.03;;;1.40;;
18887;SDS011;9576;47.792;9.628;2022-08-03T17:39:10;3.45;;;1.30;;
18887;SDS011;9576;47.792;9.628;2022-08-03T17:42:14;3.30;;;1.10;;
18887;SDS011;9576;47.792;9.628;2022-08-03T17:45:17;1.95;;;1.52;;
18887;SDS011;9576;47.792;9.628;2022-08-03T17:48:20;1.40;;;1.23;;
18887;SDS011;9576;47.792;9.628;2022-08-03T17:51:25;1.50;;;1.20;;
18887;SDS011;9576;47.792;9.628;2022-08-03T17:54:37;1.20;;;1.00;;
18887;SDS011;9576;47.792;9.628;2022-08-03T17:57:44;5.55;;;1.30;;
18887;SDS011;9576;47.792;9.628;2022-08-03T18:00:48;3.15;;;1.63;;
18887;SDS011;9576;47.792;9.628;2022-08-03T18:04:12;4.33;;;1.23;;
18887;SDS011;9576;47.792;9.628;2022-08-03T18:07:21;7.57;;;1.35;;
18887;SDS011;9576;47.792;9.628;2022-08-03T18:10:27;2.20;;;1.48;;
18887;SDS011;9576;47.792;9.628;2022-08-03T18:13:38;4.38;;;1.90;;
18887;SDS011;9576;47.792;9.628;2022-08-03T18:16:43;1.98;;;1.33;;
18887;SDS011;9576;47.792;9.628;2022-08-03T18:19:46;3.88;;;2.05;;
18887;SDS011;9576;47.792;9.628;2022-08-03T18:22:50;2.92;;;1.50;;
18887;SDS011;9576;47.792;9.628;2022-08-03T18:25:55;7.25;;;1.98;;
18887;SDS011;9576;47.792;9.628;2022-08-03T18:28:58;4.32;;;3.08;;
18887;SDS011;9576;47.792;9.628;2022-08-03T18:32:02;2.13;;;1.67;;
18887;SDS011;9576;47.792;9.628;2022-08-03T18:35:06;1.77;;;1.33;;
18887;SDS011;9576;47.792;9.628;2022-08-03T18:38:09;1.65;;;1.27;;
18887;SDS011;9576;47.792;9.628;2022-08-03T18:41:16;5.57;;;2.00;;
18887;SDS011;9576;47.792;9.628;2022-08-03T18:44:18;2.42;;;1.67;;
18887;SDS011;9576;47.792;9.628;2022-08-03T18:47:23;5.90;;;1.92;;
18887;SDS011;9576;47.792;9.628;2022-08-03T18:50:40;1.52;;;1.42;;
18887;SDS011;9576;47.792;9.628;2022-08-03T18:53:45;3.70;;;1.65;;
18887;SDS011;9576;47.792;9.628;2022-08-03T18:56:52;2.97;;;1.67;;
18887;SDS011;9576;47.792;9.628;2022-08-03T18:59:57;2.10;;;1.80;;
18887;SDS011;9576;47.792;9.628;2022-08-03T19:03:04;2.90;;;1.77;;
18887;SDS011;9576;47.792;9.628;2022-08-03T19:06:12;2.03;;;1.60;;
18887;SDS011;9576;47.792;9.628;2022-08-03T19:09:20;3.17;;;1.90;;
18887;SDS011;9576;47.792;9.628;2022-08-03T19:12:30;3.65;;;2.28;;
18887;SDS011;9576;47.792;9.628;2022-08-03T19:15:37;7.43;;;3.08;;
18887;SDS011;9576;47.792;9.628;2022-08-03T19:18:40;4.18;;;2.15;;
18887;SDS011;9576;47.792;9.628;2022-08-03T19:21:43;8.77;;;1.70;;